Time;durP1;ratioP1;P1;durP2;ratioP2;P2;SDS_P1;SDS_P2;PMS_P1;PMS_P2;Temp;Humidity;BMP_temperature;BMP_pressure;BME280_temperature;BME280_humidity;BME280_pressure;Samples;Min_cycle;Max_cycle;Signal;HPM_P1;HPM_P2
2022/04/22 00:00:27;;;;;;;5.00;4.50;;;13.90;99.90;;;;;;5057662;28;20224;-88
2022/04/22 00:02:54;;;;;;;5.20;4.70;;;14.00;99.90;;;;;;5057281;28;20224;-89
2022/04/22 00:05:21;;;;;;;6.47;4.27;;;14.00;99.90;;;;;;5057253;28;20193;-88
2022/04/22 00:07:48;;;;;;;6.63;4.50;;;13.90;99.90;;;;;;5056762;28;20208;-90
2022/04/22 00:10:16;;;;;;;8.00;4.10;;;13.90;99.90;;;;;;5057175;28;20205;-88
2022/04/22 00:12:44;;;;;;;6.77;4.00;;;13.80;99.90;;;;;;5057035;28;20243;-88
2022/04/22 00:15:13;;;;;;;4.90;4.47;;;13.80;99.90;;;;;;5056593;28;20227;-89
2022/04/22 00:17:41;;;;;;;6.63;5.07;;;13.90;99.90;;;;;;5055554;28;20477;-89
2022/04/22 00:20:10;;;;;;;9.20;5.20;;;13.90;99.90;;;;;;5057032;28;20945;-89
2022/04/22 00:22:40;;;;;;;6.97;4.90;;;13.90;99.90;;;;;;5056646;28;20208;-85
2022/04/22 00:25:09;;;;;;;9.07;5.03;;;13.90;99.90;;;;;;5056624;28;20205;-84
2022/04/22 00:27:38;;;;;;;9.10;4.73;;;13.80;99.90;;;;;;5057830;28;20211;-88
2022/04/22 00:30:07;;;;;;;4.67;4.30;;;13.80;99.90;;;;;;5057128;28;20200;-89
2022/04/22 00:32:35;;;;;;;5.17;4.63;;;13.70;99.90;;;;;;5056709;28;20687;-89
2022/04/22 00:35:03;;;;;;;6.87;4.33;;;13.60;99.90;;;;;;5056727;28;20662;-88
2022/04/22 00:37:30;;;;;;;5.73;4.17;;;13.60;99.90;;;;;;5056535;28;20221;-88
2022/04/22 00:39:56;;;;;;;6.27;4.63;;;13.60;99.90;;;;;;5057079;28;20285;-89
2022/04/22 00:42:27;;;;;;;7.78;5.40;;;13.60;99.90;;;;;;5056673;28;20464;-90
2022/04/22 00:44:58;;;;;;;6.47;4.70;;;13.40;99.90;;;;;;5056501;28;20204;-90
2022/04/22 00:47:27;;;;;;;4.40;4.00;;;13.40;99.90;;;;;;5056792;28;20549;-89
2022/04/22 00:49:53;;;;;;;6.40;4.63;;;13.40;99.90;;;;;;5055158;28;20196;-89
2022/04/22 00:52:22;;;;;;;4.93;4.30;;;13.30;99.90;;;;;;5056147;28;20228;-89
2022/04/22 00:54:49;;;;;;;4.33;4.00;;;13.10;99.90;;;;;;5056425;28;20215;-89
2022/04/22 00:57:18;;;;;;;6.60;4.47;;;13.10;99.90;;;;;;5056575;28;20236;-90
2022/04/22 00:59:45;;;;;;;5.20;4.63;;;13.00;99.90;;;;;;5056444;28;20249;-90
2022/04/22 01:02:16;;;;;;;5.60;4.43;;;12.90;99.90;;;;;;5056201;28;20203;-92
2022/04/22 01:10:12;;;;;;;6.17;4.43;;;12.60;99.90;;;;;;5056261;28;20567;-89
2022/04/22 01:12:39;;;;;;;7.10;4.47;;;12.50;99.90;;;;;;5055635;28;20230;-90
2022/04/22 01:15:08;;;;;;;6.23;4.87;;;12.40;99.90;;;;;;5055837;28;20215;-90
2022/04/22 01:17:37;;;;;;;6.70;4.77;;;12.50;99.90;;;;;;5056131;28;20201;-90
2022/04/22 01:20:06;;;;;;;7.47;4.57;;;12.40;99.90;;;;;;5055921;28;20217;-90
2022/04/22 01:22:36;;;;;;;4.43;3.87;;;12.30;99.90;;;;;;5055873;28;20206;-90
2022/04/22 01:25:04;;;;;;;8.00;4.60;;;12.30;99.90;;;;;;5055640;28;20352;-90
2022/04/22 01:27:32;;;;;;;9.53;4.80;;;12.30;99.90;;;;;;5056050;28;20198;-89
2022/04/22 01:30:02;;;;;;;6.25;5.43;;;12.30;99.90;;;;;;5055281;28;20429;-90
2022/04/22 01:32:29;;;;;;;5.70;5.10;;;12.10;99.90;;;;;;5055639;28;20564;-90
2022/04/22 01:34:56;;;;;;;4.90;4.40;;;12.10;99.90;;;;;;5055807;28;20630;-88
2022/04/22 01:37:23;;;;;;;7.97;5.63;;;12.10;99.90;;;;;;5055653;28;20206;-89
2022/04/22 01:39:51;;;;;;;6.23;5.67;;;12.10;99.90;;;;;;5054737;28;20211;-89
2022/04/22 01:42:18;;;;;;;6.63;5.57;;;12.10;99.90;;;;;;5045179;28;20214;-86
2022/04/22 01:44:45;;;;;;;7.33;5.60;;;12.10;99.90;;;;;;5043535;28;20207;-90
2022/04/22 01:47:12;;;;;;;8.17;5.00;;;12.10;99.90;;;;;;5036430;28;20579;-89
2022/04/22 01:49:39;;;;;;;5.43;4.93;;;12.10;99.90;;;;;;5035401;28;20289;-90
2022/04/22 01:52:07;;;;;;;6.80;4.97;;;12.00;99.90;;;;;;5035115;28;20227;-90
2022/04/22 01:54:34;;;;;;;6.28;5.68;;;11.90;99.90;;;;;;5034777;28;20447;-89
2022/04/22 01:57:02;;;;;;;9.70;5.80;;;11.90;99.90;;;;;;5037018;28;20191;-90
2022/04/22 01:59:29;;;;;;;6.20;5.60;;;11.70;99.90;;;;;;5036121;28;20203;-91
2022/04/22 02:01:56;;;;;;;8.80;6.00;;;11.70;99.90;;;;;;5034283;28;20669;-90
2022/04/22 02:04:23;;;;;;;6.83;5.10;;;11.70;99.90;;;;;;5035311;28;20211;-91
2022/04/22 02:06:49;;;;;;;8.40;5.53;;;11.60;99.90;;;;;;5035241;28;20202;-90
2022/04/22 02:09:16;;;;;;;8.73;5.83;;;11.70;99.90;;;;;;5033707;28;20199;-92
2022/04/22 02:11:45;;;;;;;9.30;5.67;;;11.60;99.90;;;;;;5034720;28;20207;-91
2022/04/22 02:14:13;;;;;;;6.70;6.00;;;11.50;99.90;;;;;;5034501;28;20215;-89
2022/04/22 02:16:40;;;;;;;6.40;5.80;;;11.50;99.90;;;;;;5035400;28;20271;-91
2022/04/22 02:19:07;;;;;;;11.80;6.30;;;11.50;99.90;;;;;;5035027;28;20226;-91
2022/04/22 02:21:34;;;;;;;7.90;6.23;;;11.50;99.90;;;;;;5034987;28;20206;-89
2022/04/22 02:24:01;;;;;;;8.13;6.13;;;11.40;99.90;;;;;;5034490;28;20584;-90
2022/04/22 02:26:27;;;;;;;8.77;6.17;;;11.30;99.90;;;;;;5034672;28;20685;-90
2022/04/22 02:28:53;;;;;;;8.83;6.50;;;11.30;99.90;;;;;;5034843;28;20215;-89
2022/04/22 02:31:21;;;;;;;9.00;6.20;;;11.30;99.90;;;;;;5034897;28;20539;-92
2022/04/22 02:33:48;;;;;;;7.50;6.30;;;11.10;99.90;;;;;;5034284;28;20214;-90
2022/04/22 02:36:16;;;;;;;6.83;5.70;;;11.00;99.90;;;;;;5033349;28;20207;-90
2022/04/22 02:38:43;;;;;;;10.00;6.53;;;11.10;99.90;;;;;;5035024;28;20595;-90
2022/04/22 02:46:39;;;;;;;6.73;6.23;;;11.10;99.90;;;;;;5034493;28;20206;-90
2022/04/22 02:49:06;;;;;;;7.10;6.40;;;11.00;99.90;;;;;;5034360;28;20199;-90
2022/04/22 02:51:33;;;;;;;8.70;7.17;;;11.00;99.90;;;;;;5034171;28;20210;-90
2022/04/22 02:54:00;;;;;;;11.10;7.67;;;10.90;99.90;;;;;;5034172;28;20211;-91
2022/04/22 02:56:28;;;;;;;13.37;7.60;;;10.80;99.90;;;;;;5033706;28;20206;-91
2022/04/22 02:58:56;;;;;;;9.83;7.57;;;10.80;99.90;;;;;;5033987;28;20210;-91
2022/04/22 03:01:23;;;;;;;10.77;7.93;;;10.80;99.90;;;;;;5034085;28;20227;-90
2022/04/22 03:03:51;;;;;;;9.77;8.00;;;10.80;99.90;;;;;;5033333;28;20222;-88
2022/04/22 03:06:19;;;;;;;8.40;7.57;;;10.80;99.90;;;;;;5033939;28;20569;-92
2022/04/22 03:08:46;;;;;;;8.53;7.73;;;10.80;99.90;;;;;;5032764;28;20666;-90
2022/04/22 03:11:20;;;;;;;9.87;8.07;;;10.60;99.90;;;;;;5033704;28;20215;-91
2022/04/22 03:13:47;;;;;;;9.17;7.67;;;10.60;99.90;;;;;;5033606;28;20325;-92
2022/04/22 03:16:14;;;;;;;8.50;7.70;;;10.50;99.90;;;;;;5033896;28;20209;-89
2022/04/22 03:18:40;;;;;;;12.87;8.20;;;10.50;99.90;;;;;;5033973;28;20203;-92
2022/04/22 03:21:09;;;;;;;11.33;8.63;;;10.50;99.90;;;;;;5033479;28;20578;-90
2022/04/22 03:23:35;;;;;;;9.50;8.63;;;10.50;99.90;;;;;;5033713;28;20261;-90
2022/04/22 03:26:02;;;;;;;13.00;8.97;;;10.50;99.90;;;;;;5034064;28;20211;-91
2022/04/22 03:28:29;;;;;;;9.77;8.77;;;10.50;99.90;;;;;;5035536;28;20674;-91
2022/04/22 03:30:56;;;;;;;18.05;16.20;;;10.50;99.90;;;;;;5033012;28;20435;-85
2022/04/22 03:33:23;;;;;;;10.60;9.53;;;10.60;99.90;;;;;;5033134;28;20228;-85
2022/04/22 03:35:51;;;;;;;13.87;9.53;;;10.50;99.90;;;;;;5033175;28;20207;-85
2022/04/22 03:38:19;;;;;;;10.00;9.07;;;10.40;99.90;;;;;;5032500;28;20602;-86
2022/04/22 03:40:46;;;;;;;10.80;9.70;;;10.30;99.90;;;;;;5032991;28;20253;-86
2022/04/22 03:43:13;;;;;;;10.67;9.00;;;10.20;99.90;;;;;;5032353;28;20195;-85
2022/04/22 03:45:40;;;;;;;10.27;9.23;;;10.20;99.90;;;;;;5032662;28;20639;-86
2022/04/22 03:48:07;;;;;;;12.93;9.03;;;10.10;99.90;;;;;;5032789;28;20601;-86
2022/04/22 03:50:34;;;;;;;15.67;9.93;;;10.10;99.90;;;;;;5032822;28;20207;-86
2022/04/22 03:53:01;;;;;;;11.93;9.57;;;9.90;99.90;;;;;;5032121;28;20231;-86
2022/04/22 03:55:29;;;;;;;12.75;11.40;;;10.00;99.90;;;;;;5032015;28;20791;-86
2022/04/22 03:58:10;;;;;;;11.70;10.50;;;10.10;99.90;;;;;;5032714;28;20230;-85
2022/04/22 04:00:40;;;;;;;11.27;10.10;;;10.10;99.90;;;;;;5032296;28;20706;-85
2022/04/22 04:03:07;;;;;;;14.23;10.80;;;10.10;99.90;;;;;;5032325;28;20412;-85
2022/04/22 04:05:34;;;;;;;13.60;10.40;;;10.20;99.90;;;;;;5032241;28;20207;-85
2022/04/22 04:08:00;;;;;;;13.40;10.63;;;10.20;99.90;;;;;;5032155;28;20211;-85
2022/04/22 04:16:00;;;;;;;14.10;11.43;;;10.00;99.90;;;;;;5032413;28;20298;-85
2022/04/22 04:18:28;;;;;;;12.60;11.30;;;10.00;99.90;;;;;;5032381;28;20210;-85
2022/04/22 04:23:39;;;;;;;12.63;11.37;;;9.80;99.90;;;;;;5032297;28;20186;-86
2022/04/22 04:26:08;;;;;;;13.27;12.03;;;9.80;99.90;;;;;;5034360;28;20210;-85
2022/04/22 04:28:35;;;;;;;13.43;12.03;;;9.70;99.90;;;;;;5036170;28;20191;-86
2022/04/22 04:31:02;;;;;;;13.03;11.83;;;9.60;99.90;;;;;;5036096;28;20202;-86
2022/04/22 04:33:29;;;;;;;17.37;12.63;;;9.70;99.90;;;;;;5035814;28;20234;-86
2022/04/22 04:35:58;;;;;;;13.70;12.33;;;9.70;99.90;;;;;;5035745;28;20199;-86
2022/04/22 04:38:25;;;;;;;14.60;12.93;;;9.60;99.90;;;;;;5035437;28;20203;-87
2022/04/22 04:40:52;;;;;;;15.47;13.77;;;9.60;99.90;;;;;;5036025;28;20202;-86
2022/04/22 04:43:21;;;;;;;17.13;15.55;;;9.70;99.90;;;;;;5035608;28;20435;-87
2022/04/22 04:45:50;;;;;;;17.13;14.03;;;9.70;99.90;;;;;;5036065;28;20235;-87
2022/04/22 04:48:17;;;;;;;17.03;13.67;;;9.60;99.90;;;;;;5035463;28;20675;-87
2022/04/22 04:50:45;;;;;;;17.10;13.60;;;9.60;99.90;;;;;;5035423;28;20624;-87
2022/04/22 04:53:12;;;;;;;15.20;13.77;;;9.70;99.90;;;;;;5035565;28;20234;-87
2022/04/22 04:55:39;;;;;;;15.27;13.37;;;9.70;99.90;;;;;;5035755;28;20207;-86
2022/04/22 04:58:06;;;;;;;15.90;14.17;;;9.80;99.90;;;;;;5035859;28;20206;-87
2022/04/22 05:00:34;;;;;;;16.00;13.90;;;9.90;99.90;;;;;;5037249;28;20222;-87
2022/04/22 05:03:01;;;;;;;20.87;14.30;;;9.70;99.90;;;;;;5053476;28;20216;-87
2022/04/22 05:05:28;;;;;;;16.67;14.47;;;9.60;99.90;;;;;;5054252;28;20210;-87
2022/04/22 05:07:57;;;;;;;18.40;16.60;;;9.60;99.90;;;;;;5054118;28;20512;-88
2022/04/22 05:10:25;;;;;;;16.07;13.93;;;9.70;99.90;;;;;;5055684;28;20207;-88
2022/04/22 05:12:53;;;;;;;22.07;14.37;;;9.70;99.90;;;;;;5054984;28;20229;-86
2022/04/22 05:15:22;;;;;;;19.13;14.73;;;9.60;99.90;;;;;;5055189;28;20206;-87
2022/04/22 05:17:51;;;;;;;15.80;14.13;;;9.60;99.90;;;;;;5055247;28;20668;-87
2022/04/22 05:20:19;;;;;;;19.60;14.90;;;9.80;99.90;;;;;;5055145;28;20576;-87
2022/04/22 05:22:47;;;;;;;15.90;14.07;;;9.80;99.90;;;;;;5055061;28;20217;-87
2022/04/22 05:25:16;;;;;;;16.50;15.00;;;9.90;99.90;;;;;;5054204;28;20229;-88
2022/04/22 05:27:44;;;;;;;16.47;14.87;;;9.80;99.90;;;;;;5055187;28;20650;-88
2022/04/22 05:32:59;;;;;;;19.20;14.90;;;9.90;99.90;;;;;;5052628;28;20233;-87
2022/04/22 05:35:28;;;;;;;16.63;14.90;;;9.90;99.90;;;;;;5053859;28;20659;-87
2022/04/22 05:37:56;;;;;;;16.40;14.80;;;9.80;99.90;;;;;;5053648;28;20194;-87
2022/04/22 05:40:30;;;;;;;15.90;14.30;;;9.80;99.90;;;;;;5053829;28;20199;-87
2022/04/22 05:42:58;;;;;;;18.07;14.50;;;9.70;99.90;;;;;;5052818;28;20209;-87
2022/04/22 05:45:26;;;;;;;17.60;14.50;;;9.80;99.90;;;;;;5054170;28;20186;-87
2022/04/22 05:47:53;;;;;;;17.30;14.87;;;9.90;99.90;;;;;;5054374;28;20270;-87
2022/04/22 05:50:22;;;;;;;17.77;14.50;;;9.90;99.90;;;;;;5053856;28;20209;-87
2022/04/22 05:52:50;;;;;;;18.23;15.63;;;10.00;99.90;;;;;;5054024;28;20230;-88
2022/04/22 05:55:20;;;;;;;16.93;14.70;;;9.90;99.90;;;;;;5054367;28;20198;-88
2022/04/22 05:57:48;;;;;;;16.77;15.17;;;9.90;99.90;;;;;;5054091;28;20226;-87
2022/04/22 06:00:16;;;;;;;16.67;15.00;;;10.00;99.90;;;;;;5053790;28;20222;-87
2022/04/22 06:02:44;;;;;;;16.20;14.60;;;10.00;99.90;;;;;;5053333;28;20298;-88
2022/04/22 06:05:12;;;;;;;17.37;14.43;;;10.00;99.90;;;;;;5051312;28;20654;-87
2022/04/22 06:07:41;;;;;;;17.40;15.10;;;10.20;99.90;;;;;;5053678;28;20210;-87
2022/04/22 06:12:59;;;;;;;18.37;15.10;;;10.30;99.90;;;;;;5048531;28;20701;-87
2022/04/22 06:15:27;;;;;;;18.77;15.07;;;10.40;99.90;;;;;;5054888;28;20210;-88
2022/04/22 06:17:54;;;;;;;15.43;13.93;;;10.40;99.90;;;;;;5053055;28;20202;-88
2022/04/22 06:20:21;;;;;;;16.30;13.87;;;10.50;99.90;;;;;;5054264;28;20194;-88
2022/04/22 06:22:49;;;;;;;17.67;14.53;;;10.50;99.90;;;;;;5053987;28;20198;-87
2022/04/22 06:25:16;;;;;;;15.70;14.10;;;10.60;99.90;;;;;;5053912;28;20206;-88
2022/04/22 06:27:44;;;;;;;15.53;13.53;;;10.60;99.90;;;;;;5054328;28;20203;-85
2022/04/22 06:30:13;;;;;;;15.30;13.70;;;10.70;99.90;;;;;;5053413;28;20208;-87
2022/04/22 06:32:41;;;;;;;19.17;13.47;;;10.80;99.90;;;;;;5053012;28;20638;-87
2022/04/22 06:35:11;;;;;;;15.13;13.63;;;10.80;99.90;;;;;;5054385;28;20210;-92
2022/04/22 06:37:40;;;;;;;15.73;14.13;;;10.80;99.90;;;;;;5054180;28;20202;-91
2022/04/22 06:45:50;;;;;;;15.23;13.63;;;11.00;99.90;;;;;;5054681;28;20189;-91
2022/04/22 06:48:29;;;;;;;16.73;13.40;;;11.00;99.90;;;;;;5054019;28;20649;-89
2022/04/22 06:50:59;;;;;;;16.73;13.50;;;11.20;99.90;;;;;;5054350;28;20194;-87
2022/04/22 06:53:47;;;;;;;17.80;14.80;;;11.20;99.90;;;;;;5054594;28;20498;-86
2022/04/22 06:56:20;;;;;;;15.40;13.80;;;11.30;99.90;;;;;;5054045;28;20204;-90
2022/04/22 06:58:48;;;;;;;15.40;13.83;;;11.40;99.90;;;;;;5053980;28;20213;-90
2022/04/22 07:01:16;;;;;;;16.10;13.37;;;11.50;99.90;;;;;;5053785;28;20233;-87
2022/04/22 07:03:44;;;;;;;15.43;12.83;;;11.50;99.90;;;;;;5054407;28;20264;-89
2022/04/22 07:06:31;;;;;;;15.20;13.63;;;11.50;99.90;;;;;;5054725;28;20207;-88
2022/04/22 07:08:58;;;;;;;16.40;13.80;;;11.40;99.90;;;;;;5056624;28;20202;-89
2022/04/22 07:11:30;;;;;;;17.17;13.23;;;11.50;99.90;;;;;;5053737;28;20211;-85
2022/04/22 07:13:58;;;;;;;15.20;12.90;;;11.50;99.90;;;;;;5053533;28;20257;-90
2022/04/22 07:16:29;;;;;;;17.53;13.67;;;11.60;99.90;;;;;;5053551;28;20191;-89
2022/04/22 07:19:02;;;;;;;23.63;13.33;;;11.80;99.90;;;;;;5053976;28;20281;-91
2022/04/22 07:21:32;;;;;;;15.03;13.33;;;12.00;99.90;;;;;;5053766;28;20245;-85
2022/04/22 07:23:59;;;;;;;14.40;12.87;;;12.10;99.90;;;;;;5053942;28;20194;-89
2022/04/22 07:26:33;;;;;;;17.23;13.23;;;12.00;99.90;;;;;;5053783;28;20198;-90
2022/04/22 07:29:08;;;;;;;15.43;13.67;;;12.00;99.90;;;;;;5053866;28;20199;-86
2022/04/22 07:31:38;;;;;;;17.37;13.03;;;12.10;99.90;;;;;;5053785;28;20645;-89
2022/04/22 07:34:05;;;;;;;17.07;14.97;;;12.20;99.90;;;;;;5053170;28;20450;-90
2022/04/22 07:36:32;;;;;;;15.43;14.00;;;12.40;99.90;;;;;;5053781;28;20473;-91
2022/04/22 07:38:59;;;;;;;20.10;14.00;;;12.20;99.90;;;;;;5053431;28;20214;-88
2022/04/22 07:41:32;;;;;;;17.50;13.10;;;12.40;99.90;;;;;;5053574;28;20207;-89
2022/04/22 07:47:02;;;;;;;16.80;12.80;;;12.30;99.90;;;;;;5053323;28;20205;-85
2022/04/22 07:49:33;;;;;;;17.37;13.10;;;12.50;99.90;;;;;;5053522;28;20692;-88
2022/04/22 07:52:03;;;;;;;20.87;13.37;;;12.60;99.90;;;;;;5053494;28;20198;-88
2022/04/22 07:54:30;;;;;;;17.47;12.33;;;12.70;99.90;;;;;;5053756;28;20256;-88
2022/04/22 07:57:02;;;;;;;14.03;12.40;;;12.80;99.90;;;;;;5053972;28;20190;-88
2022/04/22 07:59:30;;;;;;;19.03;12.97;;;12.80;99.90;;;;;;5056356;28;20218;-88
2022/04/22 08:02:04;;;;;;;16.27;12.77;;;12.80;99.90;;;;;;5058257;28;20718;-87
2022/04/22 08:04:31;;;;;;;14.37;12.97;;;12.90;99.90;;;;;;5057200;28;20302;-77
2022/04/22 08:06:58;;;;;;;14.93;13.33;;;12.80;99.90;;;;;;5056181;28;20207;-78
2022/04/22 08:09:25;;;;;;;14.33;12.80;;;12.90;99.90;;;;;;5056492;28;20209;-78
2022/04/22 08:11:52;;;;;;;18.17;13.93;;;13.10;99.90;;;;;;5056354;28;20203;-79
2022/04/22 08:14:20;;;;;;;15.53;13.57;;;13.20;99.90;;;;;;5056183;28;20641;-80
2022/04/22 08:16:47;;;;;;;14.83;13.33;;;13.20;99.90;;;;;;5056464;28;20198;-83
2022/04/22 08:19:14;;;;;;;19.60;13.97;;;13.30;99.90;;;;;;5056339;28;20207;-78
2022/04/22 08:21:40;;;;;;;16.80;15.20;;;13.50;99.90;;;;;;5054209;28;20433;-80
2022/04/22 08:24:10;;;;;;;15.00;13.43;;;13.60;99.90;;;;;;5055137;28;20685;-77
2022/04/22 08:26:38;;;;;;;16.50;13.73;;;13.50;99.90;;;;;;5055712;28;20561;-77
2022/04/22 08:29:04;;;;;;;15.37;13.87;;;13.70;99.90;;;;;;5055644;28;20284;-79
2022/04/22 08:31:33;;;;;;;15.30;13.70;;;13.90;99.90;;;;;;5055882;28;20193;-78
2022/04/22 08:33:59;;;;;;;16.70;13.80;;;14.00;99.90;;;;;;5056621;28;20232;-79
2022/04/22 08:36:29;;;;;;;16.77;14.37;;;14.30;99.90;;;;;;5056480;28;20206;-79
2022/04/22 08:38:57;;;;;;;16.27;14.53;;;14.40;99.90;;;;;;5056039;28;20209;-80
2022/04/22 08:41:24;;;;;;;17.23;14.67;;;14.40;99.90;;;;;;5059924;28;20204;-90
2022/04/22 08:43:52;;;;;;;17.80;15.10;;;14.10;99.90;;;;;;5065034;28;20263;-87
2022/04/22 08:51:52;;;;;;;17.30;15.00;;;13.90;99.90;;;;;;5056324;28;20196;-89
2022/04/22 08:54:21;;;;;;;17.33;15.03;;;13.90;99.90;;;;;;5037062;28;20622;-87
2022/04/22 08:56:49;;;;;;;18.40;15.00;;;14.00;99.90;;;;;;5037225;28;20209;-88
2022/04/22 08:59:17;;;;;;;18.40;15.70;;;14.30;99.90;;;;;;5036052;28;20238;-89
2022/04/22 09:01:45;;;;;;;16.67;14.50;;;14.60;99.90;;;;;;5054749;28;20198;-85
2022/04/22 09:04:13;;;;;;;16.87;15.03;;;14.50;99.90;;;;;;5057673;28;20221;-89
2022/04/22 09:06:41;;;;;;;15.70;14.10;;;14.50;99.90;;;;;;5056847;28;20220;-89
2022/04/22 09:09:08;;;;;;;17.10;14.90;;;14.40;99.90;;;;;;5056709;28;20281;-89
2022/04/22 09:11:38;;;;;;;16.83;14.60;;;14.40;99.90;;;;;;5056165;28;20248;-84
2022/04/22 09:14:05;;;;;;;17.50;15.80;;;14.20;99.90;;;;;;5055685;28;20709;-88
2022/04/22 09:16:32;;;;;;;22.60;15.23;;;14.10;99.90;;;;;;5055791;28;20284;-89
2022/04/22 09:19:00;;;;;;;17.43;15.43;;;14.00;99.90;;;;;;5053200;28;20636;-89
2022/04/22 09:21:29;;;;;;;19.00;15.27;;;14.20;99.90;;;;;;5056213;28;20198;-89
2022/04/22 09:23:56;;;;;;;15.83;14.13;;;14.40;99.90;;;;;;5055479;28;20198;-89
2022/04/22 09:26:24;;;;;;;21.63;14.87;;;14.60;99.90;;;;;;5056283;28;20671;-89
2022/04/22 09:28:57;;;;;;;15.17;13.60;;;14.70;99.90;;;;;;5057828;28;20205;-86
2022/04/22 09:31:25;;;;;;;15.77;14.10;;;14.80;99.90;;;;;;5059963;28;20198;-90
2022/04/22 09:33:53;;;;;;;15.93;14.27;;;15.00;99.90;;;;;;5056520;28;20251;-90
2022/04/22 09:44:54;;;;;;;15.20;13.63;;;15.20;99.90;;;;;;5055581;28;20260;-89
2022/04/22 09:47:21;;;;;;;14.00;12.47;;;15.20;99.90;;;;;;5055648;28;20210;-89
2022/04/22 09:49:48;;;;;;;15.57;13.87;;;15.20;99.90;;;;;;5055528;28;20199;-89
2022/04/22 09:52:14;;;;;;;16.30;13.73;;;15.40;99.90;;;;;;5055422;28;20660;-89
2022/04/22 09:54:56;;;;;;;15.40;13.90;;;15.40;99.90;;;;;;5054031;28;20320;-89
2022/04/22 09:57:23;;;;;;;16.10;13.87;;;15.70;99.90;;;;;;5054838;28;20296;-91
2022/04/22 09:59:51;;;;;;;15.60;14.00;;;15.40;99.90;;;;;;5054999;28;20237;-90
2022/04/22 10:02:24;;;;;;;16.57;14.07;;;15.30;99.90;;;;;;5054415;28;20189;-87
2022/04/22 10:04:53;;;;;;;14.87;13.27;;;15.40;99.90;;;;;;5054071;28;20202;-85
2022/04/22 10:07:20;;;;;;;15.70;14.17;;;15.40;99.90;;;;;;5054804;28;20211;-85
2022/04/22 10:09:53;;;;;;;14.87;13.33;;;15.50;99.90;;;;;;5052751;28;20249;-86
2022/04/22 10:12:23;;;;;;;14.03;12.33;;;15.10;99.90;;;;;;5054357;28;20665;-86
2022/04/22 10:14:53;;;;;;;15.70;13.67;;;15.00;99.90;;;;;;5054016;28;20243;-86
2022/04/22 10:17:21;;;;;;;13.80;12.50;;;15.10;99.90;;;;;;5051864;28;20218;-86
2022/04/22 10:19:49;;;;;;;17.20;14.23;;;15.40;99.90;;;;;;5054008;28;20207;-85
2022/04/22 10:22:18;;;;;;;14.80;13.40;;;15.70;99.90;;;;;;5053633;28;20293;-85
2022/04/22 10:24:45;;;;;;;14.73;13.23;;;15.60;99.90;;;;;;5053138;28;20210;-84
2022/04/22 10:27:14;;;;;;;15.20;13.03;;;16.00;99.90;;;;;;5053732;28;20218;-83
2022/04/22 10:29:43;;;;;;;15.27;12.93;;;16.10;99.90;;;;;;5052851;28;20187;-83
2022/04/22 10:32:12;;;;;;;14.47;13.03;;;16.60;99.90;;;;;;5053325;28;20202;-84
2022/04/22 10:34:40;;;;;;;13.30;11.93;;;16.80;99.90;;;;;;5052934;28;20224;-84
2022/04/22 10:37:16;;;;;;;15.43;11.93;;;16.20;99.90;;;;;;5053248;28;20197;-84
2022/04/22 10:39:43;;;;;;;13.27;11.40;;;16.40;99.90;;;;;;5051373;28;20536;-83
2022/04/22 10:42:16;;;;;;;11.17;10.13;;;16.50;99.90;;;;;;5053292;28;20588;-84
2022/04/22 10:47:39;;;;;;;10.73;9.17;;;16.80;99.90;;;;;;5053453;28;20556;-88
2022/04/22 10:50:31;;;;;;;10.77;9.67;;;16.90;99.90;;;;;;5057660;28;20211;-86
2022/04/22 10:53:03;;;;;;;11.40;9.50;;;16.40;99.90;;;;;;5055334;28;20209;-84
2022/04/22 10:55:32;;;;;;;11.70;9.53;;;16.70;99.90;;;;;;5061458;28;20224;-92
2022/04/22 10:58:30;;;;;;;10.47;9.37;;;16.80;99.90;;;;;;5059060;28;20665;-92
2022/04/22 11:00:58;;;;;;;8.33;7.47;;;17.10;99.90;;;;;;5019155;28;20233;-90
2022/04/22 11:03:27;;;;;;;9.07;7.67;;;17.30;99.90;;;;;;5051967;28;20672;-92
2022/04/22 11:05:59;;;;;;;9.30;7.23;;;16.60;99.90;;;;;;5058035;28;20206;-90
2022/04/22 11:08:29;;;;;;;10.60;7.57;;;16.60;99.90;;;;;;5059405;28;20622;-89
2022/04/22 11:11:05;;;;;;;9.13;8.17;;;16.30;99.90;;;;;;5055847;28;20467;-91
2022/04/22 11:13:35;;;;;;;12.30;7.20;;;16.40;99.90;;;;;;5059112;28;20854;-90
2022/04/22 11:16:07;;;;;;;9.63;7.27;;;16.20;99.90;;;;;;5054233;28;20323;-85
2022/04/22 11:18:35;;;;;;;8.63;7.67;;;16.40;99.90;;;;;;5056444;28;20205;-84
2022/04/22 11:21:04;;;;;;;7.57;6.97;;;16.50;99.90;;;;;;5056839;28;20203;-83
2022/04/22 11:23:38;;;;;;;9.17;7.50;;;16.60;99.90;;;;;;5056220;28;20212;-90
2022/04/22 11:26:06;;;;;;;8.23;7.53;;;16.20;99.90;;;;;;5057199;28;20677;-90
2022/04/22 11:28:38;;;;;;;8.90;7.97;;;16.00;99.90;;;;;;5056933;28;20736;-92
2022/04/22 11:31:07;;;;;;;11.63;8.97;;;16.20;99.90;;;;;;5056477;28;20202;-90
2022/04/22 11:33:50;;;;;;;9.60;8.57;;;16.10;99.90;;;;;;5059717;28;20198;-91
2022/04/22 11:36:16;;;;;;;10.23;9.30;;;16.10;99.90;;;;;;5065517;28;20600;-91
2022/04/22 11:38:48;;;;;;;10.50;8.63;;;16.10;99.90;;;;;;5065403;28;20289;-91
2022/04/22 11:41:16;;;;;;;10.73;9.73;;;16.10;99.90;;;;;;5067347;28;20198;-91
2022/04/22 11:43:45;;;;;;;11.23;10.10;;;16.00;99.90;;;;;;5067897;28;20653;-90
2022/04/22 11:46:13;;;;;;;12.90;10.47;;;15.80;99.90;;;;;;5063942;28;20601;-91
2022/04/22 11:48:47;;;;;;;13.90;10.73;;;15.70;99.90;;;;;;5057905;28;20210;-86
2022/04/22 11:51:15;;;;;;;12.30;11.20;;;15.80;99.90;;;;;;5056612;28;20199;-90
2022/04/22 11:53:49;;;;;;;12.73;11.50;;;15.90;99.90;;;;;;5065625;28;20662;-86
2022/04/22 11:56:24;;;;;;;13.47;11.00;;;16.30;99.90;;;;;;5064208;28;20225;-86
2022/04/22 11:58:59;;;;;;;12.33;11.13;;;16.50;99.90;;;;;;5066434;28;20203;-91
2022/04/22 12:08:00;;;;;;;10.67;9.67;;;16.20;99.90;;;;;;5061995;28;20214;-90
2022/04/22 12:10:13;;;;;;;11.57;9.57;;;16.00;99.90;;;;;;5042220;28;20199;-85
2022/04/22 12:12:50;;;;;;;11.20;9.93;;;16.30;99.90;;;;;;5055509;28;20195;-91
2022/04/22 12:15:20;;;;;;;11.47;9.63;;;16.40;99.90;;;;;;5060072;28;20212;-92
2022/04/22 12:17:48;;;;;;;9.43;8.53;;;16.60;99.90;;;;;;5058836;28;20193;-89
2022/04/22 12:20:15;;;;;;;10.43;9.43;;;16.90;99.90;;;;;;5054866;28;20883;-88
2022/04/22 12:22:44;;;;;;;10.00;9.00;;;16.90;99.90;;;;;;5056792;28;20214;-86
2022/04/22 12:25:13;;;;;;;11.80;8.83;;;16.80;99.90;;;;;;5051117;28;20197;-89
2022/04/22 12:27:42;;;;;;;9.13;8.33;;;17.10;99.90;;;;;;5055742;28;20200;-87
2022/04/22 12:30:12;;;;;;;8.73;7.83;;;17.30;99.90;;;;;;5056520;28;20203;-85
2022/04/22 12:32:52;;;;;;;8.90;8.07;;;17.40;99.90;;;;;;5055896;28;20589;-91
2022/04/22 12:35:19;;;;;;;8.53;7.83;;;17.50;99.90;;;;;;5043285;28;20252;-90
2022/04/22 12:37:50;;;;;;;10.33;9.33;;;17.50;99.90;;;;;;5043754;28;20208;-88
2022/04/22 12:40:19;;;;;;;10.20;9.17;;;17.20;99.90;;;;;;5035783;28;20210;-88
2022/04/22 12:42:47;;;;;;;9.83;8.83;;;17.10;99.90;;;;;;5051711;28;20228;-88
2022/04/22 12:53:42;;;;;;;12.30;9.20;;;17.50;99.90;;;;;;5042535;28;20253;-84
2022/04/22 12:56:10;;;;;;;15.27;8.70;;;17.40;99.90;;;;;;5035214;28;20230;-84
2022/04/22 12:58:54;;;;;;;10.93;8.60;;;17.50;99.90;;;;;;5041519;28;20230;-88
2022/04/22 13:01:25;;;;;;;10.33;9.43;;;17.50;99.90;;;;;;5055952;28;20237;-84
2022/04/22 13:03:53;;;;;;;10.07;9.17;;;17.50;99.90;;;;;;5035092;28;20215;-83
2022/04/22 13:06:43;;;;;;;13.77;9.97;;;17.40;99.90;;;;;;5035409;28;20218;-84
2022/04/22 13:09:11;;;;;;;10.10;9.30;;;17.50;99.90;;;;;;5035636;28;20623;-87
2022/04/22 13:11:43;;;;;;;10.03;8.87;;;17.30;99.90;;;;;;5035658;28;20207;-83
2022/04/22 13:14:11;;;;;;;10.80;9.80;;;17.30;99.90;;;;;;5035084;28;20206;-85
2022/04/22 13:16:38;;;;;;;9.57;8.73;;;17.20;99.90;;;;;;5035100;28;20238;-82
2022/04/22 13:19:07;;;;;;;11.63;9.20;;;17.40;99.90;;;;;;5034592;28;20218;-81
2022/04/22 13:21:34;;;;;;;11.50;10.35;;;17.60;99.90;;;;;;5034227;28;20437;-83
2022/04/22 13:24:02;;;;;;;9.70;8.83;;;17.90;99.90;;;;;;5034780;28;20210;-82
2022/04/22 13:26:29;;;;;;;8.50;7.73;;;17.90;99.90;;;;;;5034973;28;20207;-82
2022/04/22 13:28:57;;;;;;;9.23;8.43;;;18.10;99.90;;;;;;5034836;28;20209;-83
2022/04/22 13:31:25;;;;;;;10.57;8.87;;;17.90;99.90;;;;;;5034636;28;20674;-82
2022/04/22 13:33:52;;;;;;;9.57;7.43;;;17.80;99.90;;;;;;5034610;28;20209;-83
2022/04/22 13:36:24;;;;;;;9.57;7.87;;;17.60;99.90;;;;;;5034425;28;20241;-84
2022/04/22 13:38:51;;;;;;;11.10;9.00;;;18.10;99.90;;;;;;5034342;28;20207;-80
2022/04/22 13:41:18;;;;;;;12.07;10.70;;;18.00;99.90;;;;;;5034414;28;20212;-77
2022/04/22 13:43:48;;;;;;;10.40;9.50;;;17.90;99.90;;;;;;5033557;28;20427;-79
2022/04/22 13:54:29;;;;;;;10.30;9.10;;;17.40;99.90;;;;;;5033583;28;20206;-80
2022/04/22 13:56:56;;;;;;;9.97;8.93;;;17.40;99.90;;;;;;5033280;28;20226;-79